createdAt,value
2018-05-29T00:00:50.760Z,22.10
2018-05-29T00:03:18.225Z,21.37
2018-05-29T00:05:45.673Z,20.62
2018-05-29T00:08:13.125Z,18.73
2018-05-29T00:10:40.569Z,17.98
2018-05-29T00:13:08.023Z,17.10
2018-05-29T00:15:35.474Z,17.37
2018-05-29T00:18:02.913Z,17.67
2018-05-29T00:20:30.352Z,17.37
2018-05-29T00:22:58.567Z,17.30
2018-05-29T00:25:26.024Z,17.08
2018-05-29T00:27:53.460Z,17.40
2018-05-29T00:30:20.911Z,16.67
2018-05-29T00:32:49.112Z,16.48
2018-05-29T00:35:16.552Z,16.85
2018-05-29T00:37:43.991Z,17.98
2018-05-29T00:40:12.241Z,16.65
2018-05-29T00:42:39.693Z,16.98
2018-05-29T00:45:08.653Z,16.48
2018-05-29T00:47:36.097Z,16.98
2018-05-29T00:50:03.535Z,16.62
2018-05-29T00:52:30.972Z,15.87
2018-05-29T00:55:11.028Z,15.88
2018-05-29T00:57:39.266Z,15.75
2018-05-29T01:00:06.721Z,15.70
2018-05-29T01:02:34.184Z,15.73
2018-05-29T01:05:01.641Z,15.70
2018-05-29T01:07:29.087Z,15.43
2018-05-29T01:09:56.564Z,15.15
2018-05-29T01:12:24.028Z,15.50
2018-05-29T01:14:51.537Z,15.40
2018-05-29T01:17:18.972Z,16.00
2018-05-29T01:19:46.427Z,15.40
2018-05-29T01:22:14.661Z,15.18
2018-05-29T01:24:42.860Z,15.70
2018-05-29T01:27:11.076Z,15.73
2018-05-29T01:29:38.525Z,15.88
2018-05-29T01:32:05.978Z,15.80
2018-05-29T01:34:33.424Z,15.25
2018-05-29T01:37:01.620Z,15.48
2018-05-29T01:39:29.108Z,15.05
2018-05-29T01:41:56.561Z,15.50
2018-05-29T01:44:24.002Z,15.20
2018-05-29T01:46:51.456Z,15.70
2018-05-29T01:49:18.901Z,15.23
2018-05-29T01:51:46.366Z,15.10
2018-05-29T01:54:13.809Z,15.70
2018-05-29T01:56:41.261Z,15.32
2018-05-29T01:59:08.722Z,15.23
2018-05-29T02:01:36.209Z,15.73
2018-05-29T02:04:03.653Z,15.90
2018-05-29T02:06:31.100Z,15.57
2018-05-29T02:08:58.532Z,15.32
2018-05-29T02:11:26.089Z,15.20
2018-05-29T02:13:53.523Z,15.18
2018-05-29T02:16:21.730Z,14.40
2018-05-29T02:18:49.168Z,16.17
2018-05-29T02:21:16.620Z,15.30
2018-05-29T02:23:44.834Z,15.60
2018-05-29T02:26:12.294Z,15.40
2018-05-29T02:28:39.745Z,15.70
2018-05-29T02:31:07.211Z,15.30
2018-05-29T02:33:34.667Z,14.95
2018-05-29T02:36:02.116Z,15.60
2018-05-29T02:38:29.558Z,14.70
2018-05-29T02:40:57.016Z,15.70
2018-05-29T02:43:24.465Z,15.30
2018-05-29T02:45:51.913Z,15.13
2018-05-29T02:48:19.364Z,16.30
2018-05-29T02:50:46.792Z,15.32
2018-05-29T02:53:14.237Z,15.57
2018-05-29T02:55:41.677Z,15.98
2018-05-29T02:58:09.133Z,15.63
2018-05-29T03:00:36.576Z,16.08
2018-05-29T03:03:04.060Z,16.10
2018-05-29T03:05:31.585Z,15.75
2018-05-29T03:07:59.050Z,15.90
2018-05-29T03:10:26.460Z,16.20
2018-05-29T03:12:54.777Z,15.60
2018-05-29T03:15:22.211Z,16.45
2018-05-29T03:17:49.670Z,16.40
2018-05-29T03:20:17.176Z,16.02
2018-05-29T03:22:44.617Z,16.00
2018-05-29T03:25:12.052Z,16.20
2018-05-29T03:27:39.503Z,16.00
2018-05-29T03:30:06.966Z,16.10
2018-05-29T03:32:34.424Z,16.10
2018-05-29T03:35:01.846Z,16.42
2018-05-29T03:37:30.072Z,16.17
2018-05-29T03:39:57.555Z,16.33
2018-05-29T03:42:24.997Z,15.52
2018-05-29T03:44:52.456Z,16.62
2018-05-29T03:47:19.902Z,16.40
2018-05-29T03:49:47.356Z,15.50
2018-05-29T03:52:14.805Z,15.98
2018-05-29T03:54:42.264Z,16.50
2018-05-29T03:57:09.742Z,16.10
2018-05-29T03:59:37.210Z,16.20
2018-05-29T04:02:04.723Z,16.10
2018-05-29T04:04:32.153Z,16.65
2018-05-29T04:06:59.613Z,15.87
2018-05-29T04:09:27.115Z,16.17
2018-05-29T04:11:55.266Z,15.40
2018-05-29T04:14:22.707Z,16.70
2018-05-29T04:16:50.190Z,16.25
2018-05-29T04:19:17.738Z,16.70
2018-05-29T04:21:45.177Z,16.30
2018-05-29T04:24:12.648Z,16.02
2018-05-29T04:26:40.072Z,15.93
2018-05-29T04:29:08.304Z,15.88
2018-05-29T04:31:35.756Z,16.10
2018-05-29T04:34:03.304Z,15.67
2018-05-29T04:36:30.750Z,15.63
2018-05-29T04:38:58.231Z,15.80
2018-05-29T04:41:25.684Z,16.90
2018-05-29T04:43:53.157Z,17.10
2018-05-29T04:46:20.715Z,15.45
2018-05-29T04:48:48.273Z,16.58
2018-05-29T04:51:15.723Z,16.20
2018-05-29T04:53:43.272Z,17.42
2018-05-29T04:56:10.728Z,15.98
2018-05-29T04:58:38.230Z,16.30
2018-05-29T05:01:06.433Z,15.95
2018-05-29T05:03:33.898Z,16.20
2018-05-29T05:06:01.347Z,15.93
2018-05-29T05:08:28.832Z,16.43
2018-05-29T05:10:56.292Z,16.52
2018-05-29T05:13:23.729Z,15.98
2018-05-29T05:15:51.181Z,15.55
2018-05-29T05:18:18.628Z,16.10
2018-05-29T05:20:46.074Z,15.98
2018-05-29T05:23:13.552Z,16.08
2018-05-29T05:25:41.002Z,17.02
2018-05-29T05:28:08.463Z,16.75
2018-05-29T05:30:35.902Z,16.40
2018-05-29T05:33:03.359Z,15.00
2018-05-29T05:35:31.573Z,14.50
2018-05-29T05:37:59.008Z,15.20
2018-05-29T05:40:26.476Z,15.70
2018-05-29T05:42:53.920Z,14.70
2018-05-29T05:45:21.361Z,16.20
2018-05-29T05:47:48.845Z,14.95
2018-05-29T05:50:16.296Z,15.63
2018-05-29T05:52:43.900Z,15.82
2018-05-29T05:55:11.306Z,15.20
2018-05-29T05:57:38.791Z,14.85
2018-05-29T06:00:06.413Z,13.98
2018-05-29T06:02:33.891Z,14.80
2018-05-29T06:05:01.407Z,15.02
2018-05-29T06:07:29.697Z,14.05
2018-05-29T06:09:58.013Z,14.70
2018-05-29T06:12:25.553Z,13.82
2018-05-29T06:14:53.026Z,14.23
2018-05-29T06:17:20.490Z,14.05
2018-05-29T06:19:47.935Z,15.52
2018-05-29T06:22:15.479Z,13.77
2018-05-29T06:24:42.940Z,12.85
2018-05-29T06:27:10.382Z,14.40
2018-05-29T06:29:37.894Z,13.90
2018-05-29T06:32:05.430Z,14.35
2018-05-29T06:34:32.881Z,13.25
2018-05-29T06:37:01.065Z,13.73
2018-05-29T06:39:28.520Z,13.32
2018-05-29T06:41:55.981Z,13.85
2018-05-29T06:44:23.436Z,14.20
2018-05-29T06:46:50.924Z,13.03
2018-05-29T06:49:18.362Z,14.40
2018-05-29T06:51:45.820Z,13.50
2018-05-29T06:54:14.210Z,12.45
2018-05-29T06:56:42.482Z,12.40
2018-05-29T06:59:09.990Z,12.88
2018-05-29T07:01:37.470Z,12.80
2018-05-29T07:04:04.944Z,13.73
2018-05-29T07:06:32.446Z,13.13
2018-05-29T07:08:59.908Z,13.02
2018-05-29T07:11:27.341Z,12.95
2018-05-29T07:13:55.552Z,13.52
2018-05-29T07:16:23.057Z,12.60
2018-05-29T07:18:50.585Z,12.90
2018-05-29T07:21:18.185Z,12.70
2018-05-29T07:23:45.683Z,12.10
2018-05-29T07:26:13.189Z,12.10
2018-05-29T07:28:40.657Z,13.32
2018-05-29T07:31:08.852Z,11.75
2018-05-29T07:33:36.297Z,12.17
2018-05-29T07:36:03.855Z,11.85
2018-05-29T07:38:32.065Z,12.60
2018-05-29T07:40:59.553Z,11.80
2018-05-29T07:43:27.013Z,11.90
2018-05-29T07:45:54.556Z,13.35
2018-05-29T07:48:22.028Z,12.07
2018-05-29T07:50:49.519Z,12.93
2018-05-29T07:53:16.997Z,13.10
2018-05-29T07:55:44.561Z,11.40
2018-05-29T07:58:12.116Z,11.60
2018-05-29T08:00:39.552Z,12.10
2018-05-29T08:03:07.066Z,12.95
2018-05-29T08:05:34.624Z,11.15
2018-05-29T08:08:03.569Z,11.30
2018-05-29T08:10:31.046Z,12.52
2018-05-29T08:12:58.470Z,11.90
2018-05-29T08:15:25.913Z,12.05
2018-05-29T08:17:54.154Z,11.00
2018-05-29T08:20:21.630Z,11.60
2018-05-29T08:22:49.064Z,11.97
2018-05-29T08:25:16.811Z,12.13
2018-05-29T08:27:44.253Z,11.63
2018-05-29T08:30:11.717Z,12.13
2018-05-29T08:32:39.988Z,11.23
2018-05-29T08:35:07.437Z,13.48
2018-05-29T08:37:34.888Z,12.00
2018-05-29T08:40:02.346Z,12.88
2018-05-29T08:42:29.798Z,11.70
2018-05-29T08:44:57.283Z,12.20
2018-05-29T08:47:24.716Z,13.20
2018-05-29T08:49:52.160Z,10.90
2018-05-29T08:52:19.620Z,12.00
2018-05-29T08:54:47.076Z,11.37
2018-05-29T08:57:14.541Z,10.70
2018-05-29T08:59:42.020Z,11.52
2018-05-29T09:02:09.453Z,11.80
2018-05-29T09:04:37.020Z,10.48
2018-05-29T09:07:04.445Z,11.20
2018-05-29T09:09:32.656Z,11.40
2018-05-29T09:12:00.083Z,11.30
2018-05-29T09:14:27.668Z,11.85
2018-05-29T09:16:55.225Z,10.60
2018-05-29T09:19:22.679Z,11.45
2018-05-29T09:21:50.141Z,10.98
2018-05-29T09:24:17.697Z,11.68
2018-05-29T09:26:45.136Z,10.85
2018-05-29T09:29:12.609Z,10.68
2018-05-29T09:31:40.168Z,10.40
2018-05-29T09:34:07.606Z,10.55
2018-05-29T09:36:35.073Z,9.82
2018-05-29T09:39:02.528Z,9.75
2018-05-29T09:41:30.064Z,9.90
2018-05-29T09:43:57.447Z,10.27
2018-05-29T09:46:24.904Z,9.52
2018-05-29T09:48:52.364Z,10.02
2018-05-29T09:51:19.931Z,9.60
2018-05-29T09:53:47.413Z,9.60
2018-05-29T09:56:14.877Z,9.82
2018-05-29T09:58:42.313Z,10.07
2018-05-29T10:01:09.818Z,10.83
2018-05-29T10:03:37.620Z,9.80
2018-05-29T10:06:05.069Z,10.17
2018-05-29T10:08:32.514Z,10.15
2018-05-29T10:10:59.971Z,9.90
2018-05-29T10:13:27.420Z,9.32
2018-05-29T10:15:55.661Z,9.70
2018-05-29T10:18:23.133Z,10.00
2018-05-29T10:20:50.681Z,9.70
2018-05-29T10:23:18.159Z,9.00
2018-05-29T10:25:45.577Z,8.63
2018-05-29T10:28:13.106Z,9.10
2018-05-29T10:30:40.556Z,11.88
2018-05-29T10:33:07.980Z,10.15
2018-05-29T10:35:36.189Z,8.20
2018-05-29T10:38:03.641Z,8.00
2018-05-29T10:40:31.225Z,8.33
2018-05-29T10:42:58.677Z,7.80
2018-05-29T10:45:26.117Z,10.15
2018-05-29T10:47:53.682Z,7.22
2018-05-29T10:50:21.113Z,7.30
2018-05-29T10:52:49.320Z,7.10
2018-05-29T10:55:16.771Z,10.05
2018-05-29T10:57:44.209Z,8.88
2018-05-29T11:00:11.647Z,7.60
2018-05-29T11:02:39.874Z,7.40
2018-05-29T11:05:07.825Z,14.30
2018-05-29T11:07:35.251Z,8.90
2018-05-29T11:10:02.682Z,7.72
2018-05-29T11:12:30.131Z,8.43
2018-05-29T11:14:57.645Z,8.30
2018-05-29T11:17:25.072Z,8.32
2018-05-29T11:19:53.276Z,8.13
2018-05-29T11:22:20.732Z,8.82
2018-05-29T11:24:48.186Z,7.70
2018-05-29T11:27:15.617Z,7.17
2018-05-29T11:29:43.857Z,6.90
2018-05-29T11:32:11.308Z,7.40
2018-05-29T11:34:38.772Z,7.97
2018-05-29T11:37:06.761Z,9.80
2018-05-29T11:39:34.961Z,7.80
2018-05-29T11:42:02.478Z,7.30
2018-05-29T11:44:30.701Z,8.00
2018-05-29T11:47:04.137Z,7.30
2018-05-29T11:49:31.701Z,7.30
2018-05-29T11:51:59.235Z,7.80
2018-05-29T11:54:26.713Z,7.03
2018-05-29T11:56:54.170Z,6.93
2018-05-29T11:59:21.601Z,5.95
2018-05-29T12:01:49.099Z,7.30
2018-05-29T12:04:16.544Z,6.60
2018-05-29T12:06:44.103Z,7.45
2018-05-29T12:09:11.576Z,7.15
2018-05-29T12:11:39.108Z,7.68
2018-05-29T12:14:06.540Z,7.30
2018-05-29T12:16:33.985Z,7.45
2018-05-29T12:19:01.421Z,7.18
2018-05-29T12:21:28.869Z,7.93
2018-05-29T12:23:56.328Z,6.95
2018-05-29T12:26:24.536Z,7.47
2018-05-29T12:28:51.973Z,6.43
2018-05-29T12:31:19.468Z,6.50
2018-05-29T12:33:46.921Z,8.40
2018-05-29T12:36:14.392Z,12.27
2018-05-29T12:38:41.918Z,6.80
2018-05-29T12:41:09.366Z,6.20
2018-05-29T12:43:36.852Z,8.93
2018-05-29T12:46:04.344Z,7.12
2018-05-29T12:48:31.909Z,5.97
2018-05-29T12:51:00.122Z,7.18
2018-05-29T12:53:27.591Z,7.40
2018-05-29T12:55:55.075Z,6.83
2018-05-29T12:58:22.541Z,8.85
2018-05-29T13:00:50.153Z,9.23
2018-05-29T13:03:17.636Z,6.93
2018-05-29T13:05:45.094Z,5.40
2018-05-29T13:08:12.565Z,6.83
2018-05-29T13:10:40.861Z,7.25
2018-05-29T13:13:08.365Z,6.75
2018-05-29T13:15:35.824Z,6.20
2018-05-29T13:18:03.396Z,6.80
2018-05-29T13:20:30.827Z,7.30
2018-05-29T13:22:58.265Z,9.60
2018-05-29T13:25:25.726Z,7.50
2018-05-29T13:27:53.931Z,6.07
2018-05-29T13:30:21.453Z,5.90
2018-05-29T13:32:49.672Z,10.02
2018-05-29T13:35:17.110Z,5.53
2018-05-29T13:37:44.591Z,5.80
2018-05-29T13:40:12.035Z,5.83
2018-05-29T13:42:39.507Z,10.27
2018-05-29T13:45:06.969Z,7.85
2018-05-29T13:47:34.408Z,7.05
2018-05-29T13:50:01.949Z,5.30
2018-05-29T13:52:29.392Z,6.67
2018-05-29T13:54:56.864Z,8.30
2018-05-29T13:57:24.320Z,8.68
2018-05-29T13:59:51.987Z,6.80
2018-05-29T14:02:19.506Z,5.22
2018-05-29T14:04:47.753Z,5.53
2018-05-29T14:07:15.203Z,5.30
2018-05-29T14:09:42.644Z,5.07
2018-05-29T14:12:10.099Z,5.68
2018-05-29T14:14:37.550Z,5.43
2018-05-29T14:17:04.995Z,11.80
2018-05-29T14:19:32.455Z,5.07
2018-05-29T14:21:59.912Z,4.90
2018-05-29T14:24:27.388Z,5.70
2018-05-29T14:26:54.838Z,5.07
2018-05-29T14:29:22.297Z,7.50
2018-05-29T14:31:49.729Z,5.00
2018-05-29T14:34:17.210Z,5.35
2018-05-29T14:36:45.043Z,5.30
2018-05-29T14:39:12.494Z,6.30
2018-05-29T14:41:39.939Z,5.55
2018-05-29T14:44:07.469Z,11.68
2018-05-29T14:46:35.588Z,5.78
2018-05-29T14:49:03.084Z,4.70
2018-05-29T14:51:30.610Z,5.78
2018-05-29T14:53:58.040Z,5.90
2018-05-29T14:56:26.265Z,5.20
2018-05-29T14:58:53.699Z,4.80
2018-05-29T15:01:21.200Z,4.10
2018-05-29T15:03:48.748Z,4.03
2018-05-29T15:06:16.204Z,4.40
2018-05-29T15:08:43.730Z,4.75
2018-05-29T15:11:11.223Z,4.37
2018-05-29T15:13:38.652Z,4.77
2018-05-29T15:16:06.144Z,4.10
2018-05-29T15:21:08.296Z,5.37
2018-05-29T15:23:35.751Z,4.80
2018-05-29T15:26:03.245Z,4.67
2018-05-29T15:28:30.649Z,3.40
2018-05-29T15:30:58.105Z,5.10
2018-05-29T15:33:25.769Z,3.60
2018-05-29T15:35:53.431Z,3.10
2018-05-29T15:38:20.857Z,3.00
2018-05-29T15:40:49.118Z,3.90
2018-05-29T15:43:16.547Z,3.22
2018-05-29T15:45:43.984Z,4.78
2018-05-29T15:48:11.430Z,3.30
2018-05-29T15:50:38.882Z,3.40
2018-05-29T15:53:06.321Z,5.87
2018-05-29T15:55:34.720Z,5.35
2018-05-29T15:58:02.250Z,3.90
2018-05-29T16:00:30.569Z,6.32
2018-05-29T16:02:58.067Z,3.60
2018-05-29T16:05:25.506Z,3.25
2018-05-29T16:07:52.941Z,4.83
2018-05-29T16:10:20.389Z,4.37
2018-05-29T16:12:47.828Z,6.10
2018-05-29T16:15:15.269Z,3.90
2018-05-29T16:17:43.482Z,3.58
2018-05-29T16:20:10.968Z,19.10
2018-05-29T16:22:38.408Z,3.72
2018-05-29T16:25:05.847Z,4.68
2018-05-29T16:27:33.277Z,5.00
2018-05-29T16:30:01.519Z,4.60
2018-05-29T16:32:28.945Z,4.10
2018-05-29T16:34:56.384Z,4.05
2018-05-29T16:37:23.832Z,4.00
2018-05-29T16:39:51.304Z,5.03
2018-05-29T16:42:18.737Z,5.53
2018-05-29T16:44:46.985Z,4.10
2018-05-29T16:47:14.439Z,3.90
2018-05-29T16:49:41.884Z,4.07
2018-05-29T16:52:09.340Z,5.60
2018-05-29T16:54:36.783Z,6.00
2018-05-29T16:57:04.221Z,4.00
2018-05-29T16:59:31.686Z,42.72
2018-05-29T17:01:59.128Z,4.65
2018-05-29T17:04:26.576Z,4.62
2018-05-29T17:06:54.049Z,4.07
2018-05-29T17:09:21.504Z,4.00
2018-05-29T17:11:48.970Z,4.20
2018-05-29T17:14:16.516Z,5.30
2018-05-29T17:16:43.963Z,8.48
2018-05-29T17:19:11.409Z,4.97
2018-05-29T17:21:38.845Z,4.75
2018-05-29T17:24:07.069Z,4.75
2018-05-29T17:26:34.528Z,5.03
2018-05-29T17:29:02.005Z,4.10
2018-05-29T17:31:29.445Z,4.00
2018-05-29T17:33:56.989Z,3.80
2018-05-29T17:36:24.417Z,4.30
2018-05-29T17:38:52.612Z,4.17
2018-05-29T17:41:20.101Z,4.65
2018-05-29T17:43:47.764Z,4.55
2018-05-29T17:46:15.394Z,4.22
2018-05-29T17:48:42.840Z,4.93
2018-05-29T17:51:10.312Z,4.60
2018-05-29T17:53:37.782Z,5.28
2018-05-29T17:56:06.144Z,4.03
2018-05-29T17:58:33.608Z,4.18
2018-05-29T18:01:01.060Z,5.10
2018-05-29T18:03:28.501Z,3.90
2018-05-29T18:05:55.977Z,4.40
2018-05-29T18:08:23.573Z,6.32
2018-05-29T18:10:51.031Z,5.37
2018-05-29T18:13:18.557Z,4.40
2018-05-29T18:15:46.005Z,5.80
2018-05-29T18:18:13.442Z,4.60
2018-05-29T18:20:40.892Z,4.10
2018-05-29T18:23:08.432Z,5.20
2018-05-29T18:25:36.031Z,4.00
2018-05-29T18:28:03.676Z,4.40
2018-05-29T18:30:31.131Z,4.72
2018-05-29T18:32:58.634Z,4.70
2018-05-29T18:35:26.101Z,4.60
2018-05-29T18:37:53.561Z,4.82
2018-05-29T18:40:21.092Z,4.60
2018-05-29T18:42:48.521Z,4.40
2018-05-29T18:45:16.035Z,5.30
2018-05-29T18:47:43.537Z,4.70
2018-05-29T18:50:11.045Z,4.77
2018-05-29T18:52:38.519Z,5.32
2018-05-29T18:55:06.803Z,5.00
2018-05-29T18:57:34.274Z,5.57
2018-05-29T19:00:01.738Z,4.57
2018-05-29T19:02:29.210Z,5.10
2018-05-29T19:04:56.668Z,4.22
2018-05-29T19:07:24.154Z,4.05
2018-05-29T19:09:51.668Z,4.70
2018-05-29T19:12:19.849Z,5.50
2018-05-29T19:14:47.327Z,4.25
2018-05-29T19:17:14.849Z,4.47
2018-05-29T19:19:43.078Z,4.40
2018-05-29T19:22:11.069Z,4.20
2018-05-29T19:24:38.553Z,5.40
2018-05-29T19:27:06.031Z,4.20
2018-05-29T19:29:33.473Z,4.78
2018-05-29T19:32:01.405Z,4.00
2018-05-29T19:34:28.937Z,4.50
2018-05-29T19:36:56.413Z,4.50
2018-05-29T19:39:23.910Z,4.30
2018-05-29T19:41:51.370Z,5.25
2018-05-29T19:44:18.849Z,4.22
2018-05-29T19:46:46.310Z,4.57
2018-05-29T19:49:13.753Z,4.68
2018-05-29T19:51:41.197Z,4.50
2018-05-29T19:54:08.665Z,4.45
2018-05-29T19:56:36.361Z,4.55
2018-05-29T19:59:03.853Z,4.20
2018-05-29T20:01:32.064Z,4.22
2018-05-29T20:03:59.486Z,4.60
2018-05-29T20:06:26.912Z,4.90
2018-05-29T20:08:54.367Z,4.77
2018-05-29T20:11:21.826Z,4.87
2018-05-29T20:13:49.328Z,4.70
2018-05-29T20:16:16.833Z,4.70
2018-05-29T20:18:44.314Z,5.20
2018-05-29T20:21:11.785Z,4.55
2018-05-29T20:23:40.020Z,4.90
2018-05-29T20:26:07.513Z,5.00
2018-05-29T20:28:34.987Z,5.80
2018-05-29T20:31:03.580Z,4.87
2018-05-29T20:33:31.051Z,4.70
2018-05-29T20:35:58.577Z,4.70
2018-05-29T20:38:26.132Z,5.00
2018-05-29T20:40:54.776Z,4.30
2018-05-29T20:43:23.145Z,5.00
2018-05-29T20:45:50.713Z,4.60
2018-05-29T20:48:18.760Z,4.70
2018-05-29T20:50:48.194Z,4.47
2018-05-29T20:53:16.285Z,4.40
2018-05-29T20:55:44.178Z,4.40
2018-05-29T20:58:12.256Z,4.80
2018-05-29T21:00:39.815Z,4.43
2018-05-29T21:03:07.313Z,4.70
2018-05-29T21:05:34.763Z,5.03
2018-05-29T21:08:02.223Z,4.70
2018-05-29T21:10:29.706Z,5.20
2018-05-29T21:12:57.967Z,4.95
2018-05-29T21:15:25.496Z,4.78
2018-05-29T21:17:53.692Z,4.55
2018-05-29T21:20:21.194Z,5.00
2018-05-29T21:22:48.721Z,4.80
2018-05-29T21:25:16.346Z,5.00
2018-05-29T21:27:44.043Z,5.28
2018-05-29T21:30:11.805Z,5.32
2018-05-29T21:32:40.010Z,4.50
2018-05-29T21:35:08.295Z,4.80
2018-05-29T21:37:36.515Z,5.10
2018-05-29T21:40:03.988Z,4.70
2018-05-29T21:42:31.454Z,5.05
2018-05-29T21:44:58.908Z,4.90
2018-05-29T21:47:27.237Z,4.97
2018-05-29T21:49:54.660Z,4.80
2018-05-29T21:52:22.153Z,4.70
2018-05-29T21:54:49.573Z,4.95
2018-05-29T21:57:17.029Z,5.40
2018-05-29T21:59:45.260Z,5.60
2018-05-29T22:02:12.711Z,5.65
2018-05-29T22:04:40.136Z,5.60
2018-05-29T22:07:07.572Z,5.45
2018-05-29T22:09:35.005Z,4.90
2018-05-29T22:12:02.553Z,4.90
2018-05-29T22:14:29.977Z,5.20
2018-05-29T22:16:57.427Z,4.80
2018-05-29T22:19:24.845Z,5.03
2018-05-29T22:21:53.079Z,5.07
2018-05-29T22:24:20.509Z,4.90
2018-05-29T22:26:47.952Z,5.60
2018-05-29T22:29:15.384Z,5.05
2018-05-29T22:31:43.581Z,4.80
2018-05-29T22:34:11.015Z,5.10
2018-05-29T22:36:39.234Z,4.50
2018-05-29T22:39:06.668Z,4.68
2018-05-29T22:41:34.930Z,5.30
2018-05-29T22:44:03.117Z,4.80
2018-05-29T22:46:30.548Z,5.90
2018-05-29T22:48:58.764Z,5.65
2018-05-29T22:51:26.241Z,5.20
2018-05-29T22:53:53.675Z,5.43
2018-05-29T22:56:21.139Z,4.90
2018-05-29T22:58:48.577Z,5.12
2018-05-29T23:01:16.016Z,5.95
2018-05-29T23:03:43.467Z,5.30
2018-05-29T23:06:10.963Z,4.87
2018-05-29T23:08:38.388Z,5.55
2018-05-29T23:11:05.816Z,4.47
2018-05-29T23:13:33.349Z,5.12
2018-05-29T23:16:00.792Z,4.97
2018-05-29T23:18:28.283Z,6.00
2018-05-29T23:20:55.696Z,5.40
2018-05-29T23:23:23.490Z,5.40
2018-05-29T23:25:50.900Z,5.50
2018-05-29T23:28:18.344Z,5.60
2018-05-29T23:30:45.849Z,6.57
2018-05-29T23:33:13.304Z,5.30
2018-05-29T23:35:40.750Z,5.53
2018-05-29T23:38:08.218Z,5.40
2018-05-29T23:40:35.644Z,5.43
2018-05-29T23:43:03.080Z,5.82
2018-05-29T23:45:31.313Z,5.60
2018-05-29T23:47:58.757Z,5.72
2018-05-29T23:50:26.200Z,5.30
2018-05-29T23:52:53.650Z,4.82
2018-05-29T23:55:21.077Z,5.20
2018-05-29T23:57:49.305Z,5.47
